createdAt,value
2017-03-17T00:00:37.846Z,49.20
2017-03-17T00:01:28.785Z,49.10
2017-03-17T00:02:47.176Z,49.20
2017-03-17T00:03:26.469Z,49.10
2017-03-17T00:04:28.516Z,49.20
2017-03-17T00:05:32.776Z,49.20
2017-03-17T00:06:27.740Z,49.10
2017-03-17T00:07:28.063Z,49.10
2017-03-17T00:08:39.113Z,49.20
2017-03-17T00:09:32.880Z,49.20
2017-03-17T00:10:37.478Z,49.50
2017-03-17T00:11:37.985Z,49.10
2017-03-17T00:12:38.719Z,49.20
2017-03-17T00:13:34.146Z,49.20
2017-03-17T00:14:36.228Z,49.50
2017-03-17T00:15:36.025Z,49.10
2017-03-17T00:16:30.746Z,49.10
2017-03-17T00:17:29.372Z,49.10
2017-03-17T00:18:29.269Z,49.20
2017-03-17T00:19:35.230Z,49.10
2017-03-17T00:20:35.987Z,49.10
2017-03-17T00:21:29.728Z,49.10
2017-03-17T00:22:37.614Z,49.10
2017-03-17T00:23:28.758Z,49.20
2017-03-17T00:24:48.218Z,is
2017-03-17T00:25:31.440Z,49.10
2017-03-17T00:26:36.836Z,49.20
2017-03-17T00:27:32.219Z,49.20
2017-03-17T00:28:29.123Z,49.20
2017-03-17T00:29:31.047Z,49.20
2017-03-17T00:30:28.568Z,49.20
2017-03-17T00:31:34.374Z,49.10
2017-03-17T00:32:27.698Z,49.10
2017-03-17T00:33:36.509Z,49.20
2017-03-17T00:34:33.974Z,48.50
2017-03-17T00:35:33.037Z,49.30
2017-03-17T00:36:26.478Z,49.20
2017-03-17T00:37:28.107Z,49.30
2017-03-17T00:38:28.553Z,49.50
2017-03-17T00:39:28.503Z,49.50
2017-03-17T00:40:27.159Z,49.50
2017-03-17T00:41:28.351Z,49.40
2017-03-17T00:42:32.990Z,49.40
2017-03-17T00:43:28.364Z,49.40
2017-03-17T00:44:33.635Z,49.40
2017-03-17T00:45:32.351Z,49.40
2017-03-17T00:46:31.350Z,49.40
2017-03-17T00:47:27.682Z,49.30
2017-03-17T00:48:27.725Z,49.40
2017-03-17T00:49:27.100Z,49.40
2017-03-17T00:50:29.193Z,49.30
2017-03-17T00:51:34.228Z,49.60
2017-03-17T00:52:33.794Z,49.50
2017-03-17T00:53:32.819Z,49.30
2017-03-17T00:54:28.750Z,49.50
2017-03-17T00:55:37.388Z,49.40
2017-03-17T00:56:37.038Z,is
2017-03-17T00:57:26.920Z,49.50
2017-03-17T00:58:27.682Z,49.50
2017-03-17T00:59:32.251Z,49.50
2017-03-17T01:00:30.932Z,49.70
2017-03-17T01:01:29.006Z,49.60
2017-03-17T01:02:38.580Z,48.70
2017-03-17T01:03:29.187Z,49.50
2017-03-17T01:04:43.299Z,49.60
2017-03-17T01:05:37.148Z,49.50
2017-03-17T01:06:27.859Z,49.10
2017-03-17T01:07:36.608Z,is
2017-03-17T01:08:30.964Z,49.60
2017-03-17T01:09:22.880Z,49.50
2017-03-17T01:10:38.342Z,49.60
2017-03-17T01:11:32.838Z,49.50
2017-03-17T01:12:47.381Z,49.60
2017-03-17T01:13:46.578Z,49.60
2017-03-17T01:14:39.652Z,49.70
2017-03-17T01:15:37.691Z,49.60
2017-03-17T01:16:28.810Z,49.60
2017-03-17T01:17:28.490Z,49.60
2017-03-17T01:18:37.202Z,49.60
2017-03-17T01:19:31.089Z,49.70
2017-03-17T01:20:33.024Z,is
2017-03-17T01:21:29.507Z,49.60
2017-03-17T01:22:38.356Z,49.70
2017-03-17T01:23:37.501Z,49.70
2017-03-17T01:24:22.620Z,49.60
2017-03-17T01:25:33.860Z,49.60
2017-03-17T01:26:32.275Z,49.60
2017-03-17T01:27:43.611Z,is
2017-03-17T01:28:38.031Z,49.70
2017-03-17T01:29:29.132Z,49.60
2017-03-17T01:30:27.436Z,is
2017-03-17T01:31:33.121Z,49.60
2017-03-17T01:32:27.348Z,49.60
2017-03-17T01:33:29.000Z,49.50
2017-03-17T01:34:37.662Z,is
2017-03-17T01:35:37.327Z,49.50
2017-03-17T01:36:31.591Z,49.60
2017-03-17T01:37:36.359Z,49.50
2017-03-17T01:38:27.625Z,49.60
2017-03-17T01:39:28.464Z,49.90
2017-03-17T01:40:29.607Z,49.60
2017-03-17T01:41:32.291Z,49.40
2017-03-17T01:42:36.638Z,49.50
2017-03-17T01:43:37.240Z,49.60
2017-03-17T01:44:31.013Z,49.60
2017-03-17T01:45:30.664Z,49.50
2017-03-17T01:46:29.084Z,49.90
2017-03-17T01:47:29.627Z,49.40
2017-03-17T01:48:33.464Z,49.50
2017-03-17T01:49:38.230Z,49.60
2017-03-17T01:50:37.291Z,49.60
2017-03-17T01:51:33.261Z,49.50
2017-03-17T01:52:27.285Z,49.60
2017-03-17T01:53:26.916Z,49.60
2017-03-17T01:54:28.714Z,49.50
2017-03-17T01:55:28.432Z,49.50
2017-03-17T01:56:38.242Z,49.60
2017-03-17T01:57:31.780Z,49.40
2017-03-17T01:58:37.602Z,49.60
2017-03-17T01:59:29.375Z,49.60
2017-03-17T02:00:29.248Z,49.60
2017-03-17T02:01:37.915Z,49.40
2017-03-17T02:02:37.068Z,49.50
2017-03-17T02:03:33.232Z,49.50
2017-03-17T02:04:37.273Z,49.40
2017-03-17T02:05:31.554Z,49.50
2017-03-17T02:06:28.364Z,49.50
2017-03-17T02:07:38.017Z,49.40
2017-03-17T02:08:38.788Z,49.50
2017-03-17T02:09:33.923Z,49.60
2017-03-17T02:10:32.820Z,49.50
2017-03-17T02:11:28.830Z,49.40
2017-03-17T02:12:32.773Z,49.50
2017-03-17T02:13:34.424Z,49.30
2017-03-17T02:14:31.209Z,49.40
2017-03-17T02:15:31.952Z,49.50
2017-03-17T02:16:31.418Z,49.30
2017-03-17T02:17:29.411Z,is
2017-03-17T02:18:33.380Z,49.30
2017-03-17T02:19:38.623Z,49.30
2017-03-17T02:20:27.139Z,49.30
2017-03-17T02:21:27.079Z,49.40
2017-03-17T02:22:32.945Z,49.30
2017-03-17T02:23:37.045Z,49.30
2017-03-17T02:24:26.050Z,49.30
2017-03-17T02:25:35.667Z,49.30
2017-03-17T02:26:34.827Z,49.30
2017-03-17T02:27:28.974Z,49.30
2017-03-17T02:28:32.944Z,49.20
2017-03-17T02:29:38.641Z,49.30
2017-03-17T02:30:32.826Z,49.40
2017-03-17T02:31:37.320Z,49.30
2017-03-17T02:32:25.888Z,49.30
2017-03-17T02:33:38.407Z,49.30
2017-03-17T02:34:37.665Z,49.30
2017-03-17T02:35:32.764Z,49.40
2017-03-17T02:36:32.733Z,49.30
2017-03-17T02:37:25.962Z,49.30
2017-03-17T02:38:27.190Z,49.40
2017-03-17T02:39:29.763Z,49.30
2017-03-17T02:40:33.454Z,49.30
2017-03-17T02:41:30.803Z,49.30
2017-03-17T02:42:26.718Z,49.40
2017-03-17T02:43:32.975Z,49.30
2017-03-17T02:44:33.402Z,49.30
2017-03-17T02:45:37.243Z,49.30
2017-03-17T02:46:26.572Z,49.30
2017-03-17T02:47:27.926Z,49.50
2017-03-17T02:48:33.050Z,is
2017-03-17T02:49:32.638Z,49.30
2017-03-17T02:50:28.562Z,49.30
2017-03-17T02:51:32.756Z,49.30
2017-03-17T02:52:28.463Z,49.30
2017-03-17T02:53:28.414Z,49.30
2017-03-17T02:54:28.946Z,49.40
2017-03-17T02:55:28.837Z,49.60
2017-03-17T02:56:29.710Z,49.50
2017-03-17T02:57:27.721Z,49.60
2017-03-17T02:58:30.902Z,49.70
2017-03-17T02:59:32.318Z,49.60
2017-03-17T03:00:27.025Z,49.60
2017-03-17T03:01:28.522Z,49.50
2017-03-17T03:02:34.160Z,49.50
2017-03-17T03:03:30.091Z,49.70
2017-03-17T03:04:33.641Z,49.40
2017-03-17T03:05:29.198Z,48.70
2017-03-17T03:06:32.920Z,49.60
2017-03-17T03:07:31.836Z,49.60
2017-03-17T03:08:32.937Z,49.60
2017-03-17T03:09:25.710Z,49.40
2017-03-17T03:10:32.808Z,49.60
2017-03-17T03:11:35.686Z,49.60
2017-03-17T03:12:37.159Z,is
2017-03-17T03:13:36.675Z,49.70
2017-03-17T03:14:37.488Z,49.70
2017-03-17T03:15:33.769Z,49.60
2017-03-17T03:16:28.702Z,49.50
2017-03-17T03:17:32.819Z,49.60
2017-03-17T03:18:28.974Z,49.70
2017-03-17T03:19:33.740Z,49.80
2017-03-17T03:20:26.563Z,49.80
2017-03-17T03:21:32.713Z,49.70
2017-03-17T03:22:26.790Z,49.70
2017-03-17T03:23:37.699Z,49.80
2017-03-17T03:24:37.279Z,49.70
2017-03-17T03:25:27.569Z,49.60
2017-03-17T03:26:38.696Z,49.60
2017-03-17T03:27:28.453Z,49.60
2017-03-17T03:28:38.504Z,49.60
2017-03-17T03:29:36.832Z,49.70
2017-03-17T03:30:33.234Z,49.70
2017-03-17T03:31:27.180Z,49.70
2017-03-17T03:32:27.198Z,49.80
2017-03-17T03:33:26.454Z,49.70
2017-03-17T03:34:26.994Z,49.70
2017-03-17T03:35:30.687Z,49.60
2017-03-17T03:36:33.236Z,49.60
2017-03-17T03:37:28.493Z,49.80
2017-03-17T03:38:29.399Z,49.70
2017-03-17T03:39:33.672Z,49.70
2017-03-17T03:40:28.470Z,49.70
2017-03-17T03:41:38.350Z,49.70
2017-03-17T03:42:38.373Z,49.60
2017-03-17T03:43:27.628Z,49.50
2017-03-17T03:44:31.775Z,49.60
2017-03-17T03:45:32.639Z,49.70
2017-03-17T03:46:32.937Z,49.70
2017-03-17T03:47:28.361Z,49.70
2017-03-17T03:48:29.143Z,49.70
2017-03-17T03:49:29.012Z,49.80
2017-03-17T03:50:29.472Z,49.80
2017-03-17T03:51:36.157Z,49.60
2017-03-17T03:52:27.014Z,49.80
2017-03-17T03:53:32.757Z,49.90
2017-03-17T03:54:35.378Z,49.90
2017-03-17T03:55:33.074Z,49.90
2017-03-17T03:56:31.217Z,49.90
2017-03-17T03:57:31.308Z,49.80
2017-03-17T03:58:28.726Z,49.90
2017-03-17T03:59:32.114Z,49.90
2017-03-17T04:00:31.422Z,49.90
2017-03-17T04:01:27.604Z,49.90
2017-03-17T04:02:38.664Z,49.80
2017-03-17T04:03:32.755Z,49.80
2017-03-17T04:04:33.311Z,49.90
2017-03-17T04:05:26.641Z,49.90
2017-03-17T04:06:31.512Z,49.90
2017-03-17T04:07:27.574Z,49.80
2017-03-17T04:08:27.106Z,49.90
2017-03-17T04:09:27.894Z,49.90
2017-03-17T04:10:29.364Z,49.90
2017-03-17T04:11:27.419Z,49.90
2017-03-17T04:12:39.175Z,49.80
2017-03-17T04:13:29.384Z,49.90
2017-03-17T04:14:36.153Z,49.90
2017-03-17T04:15:24.974Z,49.90
2017-03-17T04:16:37.754Z,50.00
2017-03-17T04:17:27.631Z,49.80
2017-03-17T04:18:31.100Z,49.80
2017-03-17T04:19:32.683Z,50.00
2017-03-17T04:20:31.273Z,is
2017-03-17T04:21:28.515Z,49.90
2017-03-17T04:22:33.484Z,49.90
2017-03-17T04:23:31.580Z,50.30
2017-03-17T04:24:29.099Z,50.00
2017-03-17T04:25:27.644Z,49.90
2017-03-17T04:26:32.749Z,50.10
2017-03-17T04:27:33.183Z,50.00
2017-03-17T04:28:28.546Z,50.00
2017-03-17T04:29:33.782Z,50.10
2017-03-17T04:30:33.500Z,50.00
2017-03-17T04:31:27.194Z,50.00
2017-03-17T04:32:37.802Z,50.00
2017-03-17T04:33:34.146Z,50.10
2017-03-17T04:34:28.934Z,50.00
2017-03-17T04:35:36.946Z,50.00
2017-03-17T04:36:28.859Z,50.00
2017-03-17T04:37:32.752Z,50.00
2017-03-17T04:38:29.664Z,50.10
2017-03-17T04:39:34.049Z,50.00
2017-03-17T04:40:32.741Z,50.00
2017-03-17T04:41:26.897Z,is
2017-03-17T04:42:36.553Z,50.10
2017-03-17T04:43:28.570Z,50.00
2017-03-17T04:44:29.430Z,50.10
2017-03-17T04:45:32.648Z,50.10
2017-03-17T04:46:28.674Z,50.10
2017-03-17T04:47:28.369Z,50.00
2017-03-17T04:48:32.768Z,49.90
2017-03-17T04:49:28.748Z,50.10
2017-03-17T04:50:29.102Z,50.00
2017-03-17T04:51:32.212Z,50.00
2017-03-17T04:52:30.990Z,50.00
2017-03-17T04:53:33.150Z,50.00
2017-03-17T04:54:28.891Z,50.00
2017-03-17T04:55:28.625Z,50.10
2017-03-17T04:56:26.669Z,50.00
2017-03-17T04:57:33.566Z,50.10
2017-03-17T04:58:34.135Z,49.30
2017-03-17T04:59:29.411Z,50.00
2017-03-17T05:00:37.163Z,50.10
2017-03-17T05:01:48.617Z,49.90
2017-03-17T05:02:37.129Z,49.90
2017-03-17T05:03:34.525Z,49.90
2017-03-17T05:04:32.013Z,50.00
2017-03-17T05:05:33.242Z,50.10
2017-03-17T05:06:28.293Z,50.10
2017-03-17T05:07:29.055Z,50.20
2017-03-17T05:08:38.507Z,50.20
2017-03-17T05:09:29.459Z,50.20
2017-03-17T05:10:28.641Z,50.20
2017-03-17T05:11:28.544Z,50.20
2017-03-17T05:12:29.540Z,50.30
2017-03-17T05:13:28.493Z,50.20
2017-03-17T05:14:32.719Z,50.30
2017-03-17T05:15:27.632Z,50.20
2017-03-17T05:16:32.769Z,50.20
2017-03-17T05:17:32.820Z,50.30
2017-03-17T05:18:28.396Z,50.20
2017-03-17T05:19:38.295Z,50.20
2017-03-17T05:20:33.609Z,50.20
2017-03-17T05:21:32.803Z,50.40
2017-03-17T05:22:28.581Z,50.30
2017-03-17T05:23:33.250Z,50.20
2017-03-17T05:24:38.188Z,50.00
2017-03-17T05:25:26.366Z,50.10
2017-03-17T05:26:32.848Z,50.20
2017-03-17T05:27:27.658Z,50.30
2017-03-17T05:28:32.824Z,50.30
2017-03-17T05:29:32.911Z,is
2017-03-17T05:30:37.019Z,50.30
2017-03-17T05:31:34.689Z,50.20
2017-03-17T05:32:28.578Z,50.20
2017-03-17T05:33:27.759Z,50.10
2017-03-17T05:34:23.763Z,50.10
2017-03-17T05:35:33.446Z,50.10
2017-03-17T05:36:33.206Z,50.10
2017-03-17T05:37:26.786Z,50.10
2017-03-17T05:38:35.798Z,50.10
2017-03-17T05:39:37.281Z,50.10
2017-03-17T05:40:28.612Z,50.20
2017-03-17T05:41:38.361Z,50.10
2017-03-17T05:42:38.647Z,50.10
2017-03-17T05:43:27.388Z,50.10
2017-03-17T05:44:29.412Z,50.20
2017-03-17T05:45:36.409Z,50.20
2017-03-17T05:46:28.272Z,50.10
2017-03-17T05:47:25.061Z,50.20
2017-03-17T05:48:35.436Z,50.20
2017-03-17T05:49:19.750Z,50.10
2017-03-17T05:50:27.113Z,50.10
2017-03-17T05:51:26.533Z,50.20
2017-03-17T05:52:37.512Z,50.20
2017-03-17T05:53:33.302Z,50.20
2017-03-17T05:54:27.039Z,50.10
2017-03-17T05:55:32.868Z,50.10
2017-03-17T05:56:32.871Z,50.10
2017-03-17T05:57:31.689Z,50.10
2017-03-17T05:58:34.377Z,50.20
2017-03-17T05:59:27.354Z,50.10
2017-03-17T06:00:33.312Z,50.20
2017-03-17T06:01:32.803Z,50.10
2017-03-17T06:02:33.114Z,50.20
2017-03-17T06:03:28.452Z,50.20
2017-03-17T06:04:38.541Z,50.20
2017-03-17T06:05:32.982Z,50.60
2017-03-17T06:06:17.024Z,50.90
2017-03-17T06:07:25.081Z,51.00
2017-03-17T06:08:28.488Z,51.00
2017-03-17T06:09:32.820Z,51.00
2017-03-17T06:10:28.526Z,51.00
2017-03-17T06:11:21.550Z,51.10
2017-03-17T06:12:38.684Z,51.00
2017-03-17T06:13:28.796Z,51.00
2017-03-17T06:14:32.694Z,51.10
2017-03-17T06:15:32.072Z,51.00
2017-03-17T06:16:28.926Z,51.00
2017-03-17T06:17:22.295Z,51.00
2017-03-17T06:18:28.163Z,is
2017-03-17T06:19:28.726Z,51.00
2017-03-17T06:20:33.462Z,51.10
2017-03-17T06:21:32.826Z,51.40
2017-03-17T06:22:27.444Z,51.40
2017-03-17T06:23:37.515Z,51.50
2017-03-17T06:24:29.163Z,51.50
2017-03-17T06:25:26.229Z,51.50
2017-03-17T06:26:33.215Z,51.60
2017-03-17T06:27:26.758Z,51.50
2017-03-17T06:28:25.612Z,51.40
2017-03-17T06:29:37.035Z,51.60
2017-03-17T06:30:27.769Z,51.50
2017-03-17T06:31:30.659Z,51.60
2017-03-17T06:32:30.738Z,51.70
2017-03-17T06:33:26.042Z,51.70
2017-03-17T06:34:37.374Z,51.70
2017-03-17T06:35:29.074Z,51.70
2017-03-17T06:36:38.016Z,51.80
2017-03-17T06:37:32.897Z,is
2017-03-17T06:38:37.373Z,51.80
2017-03-17T06:39:38.014Z,52.10
2017-03-17T06:40:28.812Z,52.00
2017-03-17T06:41:28.985Z,52.00
2017-03-17T06:42:28.546Z,52.10
2017-03-17T06:43:30.420Z,52.00
2017-03-17T06:44:37.127Z,52.20
2017-03-17T06:45:27.235Z,52.00
2017-03-17T06:46:27.446Z,52.00
2017-03-17T06:47:32.959Z,52.20
2017-03-17T06:48:34.000Z,52.10
2017-03-17T06:49:30.467Z,52.20
2017-03-17T06:50:28.952Z,52.20
2017-03-17T06:51:29.221Z,52.20
2017-03-17T06:52:42.252Z,52.10
2017-03-17T06:53:38.792Z,52.20
2017-03-17T06:54:27.167Z,52.40
2017-03-17T06:55:27.514Z,52.20
2017-03-17T06:56:27.254Z,52.20
2017-03-17T06:57:33.019Z,52.20
2017-03-17T06:58:27.635Z,52.40
2017-03-17T06:59:33.957Z,52.30
2017-03-17T07:00:31.996Z,52.30
2017-03-17T07:01:31.940Z,52.40
2017-03-17T07:02:27.544Z,52.40
2017-03-17T07:03:22.703Z,52.50
2017-03-17T07:04:33.189Z,52.50
2017-03-17T07:05:26.193Z,52.60
2017-03-17T07:06:26.201Z,52.40
2017-03-17T07:07:31.124Z,52.40
2017-03-17T07:08:31.791Z,52.40
2017-03-17T07:09:28.668Z,52.40
2017-03-17T07:10:26.546Z,52.40
2017-03-17T07:11:29.328Z,52.40
2017-03-17T07:12:28.392Z,52.40
2017-03-17T07:13:30.934Z,52.60
2017-03-17T07:14:32.458Z,52.50
2017-03-17T07:15:28.110Z,52.70
2017-03-17T07:16:26.138Z,47.60
2017-03-17T07:17:30.820Z,41.80
2017-03-17T07:18:25.383Z,38.90
2017-03-17T07:19:31.553Z,37.30
2017-03-17T07:20:32.786Z,35.90
2017-03-17T07:21:32.403Z,37.50
2017-03-17T07:22:34.733Z,34.70
2017-03-17T07:23:30.465Z,37.70
2017-03-17T07:24:29.383Z,38.20
2017-03-17T07:25:33.013Z,40.60
2017-03-17T07:26:37.760Z,41.90
2017-03-17T07:27:27.187Z,42.50
2017-03-17T07:28:37.126Z,43.00
2017-03-17T07:29:34.057Z,43.20
2017-03-17T07:30:26.983Z,43.60
2017-03-17T07:31:32.897Z,43.50
2017-03-17T07:32:32.858Z,43.70
2017-03-17T07:33:27.858Z,43.80
2017-03-17T07:34:34.459Z,44.10
2017-03-17T07:35:27.750Z,44.10
2017-03-17T07:36:28.848Z,43.90
2017-03-17T07:37:32.873Z,44.20
2017-03-17T07:38:33.906Z,44.20
2017-03-17T07:39:32.877Z,44.20
2017-03-17T07:40:27.132Z,44.00
2017-03-17T07:41:24.614Z,44.20
2017-03-17T07:42:32.115Z,44.10
2017-03-17T07:43:28.558Z,44.10
2017-03-17T07:44:33.144Z,44.10
2017-03-17T07:45:30.217Z,44.30
2017-03-17T07:46:35.621Z,44.60
2017-03-17T07:47:33.967Z,44.80
2017-03-17T07:48:27.190Z,44.80
2017-03-17T07:49:32.597Z,44.80
2017-03-17T07:50:27.209Z,44.90
2017-03-17T07:51:28.120Z,44.90
2017-03-17T07:52:25.734Z,45.00
2017-03-17T07:53:32.321Z,44.90
2017-03-17T07:54:33.303Z,44.90
2017-03-17T07:55:37.553Z,44.90
2017-03-17T07:56:35.038Z,44.90
2017-03-17T07:57:35.507Z,44.90
2017-03-17T07:58:28.314Z,44.90
2017-03-17T07:59:31.604Z,45.10
2017-03-17T08:00:26.873Z,45.00
2017-03-17T08:01:33.404Z,45.00
2017-03-17T08:02:26.717Z,45.00
2017-03-17T08:03:26.337Z,45.00
2017-03-17T08:04:25.162Z,45.00
2017-03-17T08:05:21.183Z,45.00
2017-03-17T08:06:23.130Z,45.10
2017-03-17T08:07:27.710Z,45.00
2017-03-17T08:08:28.111Z,45.00
2017-03-17T08:09:28.112Z,45.10
2017-03-17T08:10:27.365Z,45.00
2017-03-17T08:11:28.433Z,45.00
2017-03-17T08:12:33.293Z,45.20
2017-03-17T08:13:26.502Z,45.10
2017-03-17T08:14:32.828Z,45.10
2017-03-17T08:15:21.995Z,45.10
2017-03-17T08:16:27.142Z,45.00
2017-03-17T08:17:22.321Z,45.10
2017-03-17T08:18:28.256Z,44.20
2017-03-17T08:19:27.153Z,45.00
2017-03-17T08:20:28.373Z,45.00
2017-03-17T08:21:30.909Z,45.00
2017-03-17T08:22:31.891Z,45.00
2017-03-17T08:23:33.262Z,45.10
2017-03-17T08:24:31.238Z,45.10
2017-03-17T08:25:31.878Z,45.20
2017-03-17T08:26:27.126Z,45.20
2017-03-17T08:27:37.460Z,is
2017-03-17T08:28:36.046Z,45.10
2017-03-17T08:29:34.134Z,45.10
2017-03-17T08:30:32.873Z,45.10
2017-03-17T08:31:29.449Z,45.20
2017-03-17T08:32:28.088Z,45.20
2017-03-17T08:33:27.964Z,45.10
2017-03-17T08:34:37.911Z,45.10
2017-03-17T08:35:28.822Z,45.10
2017-03-17T08:36:28.531Z,45.20
2017-03-17T08:37:12.694Z,is
2017-03-17T08:38:27.566Z,45.10
2017-03-17T08:39:28.632Z,45.10
2017-03-17T08:40:32.799Z,45.10
2017-03-17T08:41:32.849Z,45.20
2017-03-17T08:42:33.824Z,45.10
2017-03-17T08:43:23.395Z,45.10
2017-03-17T08:44:32.885Z,45.20
2017-03-17T08:45:27.176Z,45.10
2017-03-17T08:46:26.617Z,45.20
2017-03-17T08:47:27.113Z,45.20
2017-03-17T08:48:31.857Z,45.20
2017-03-17T08:49:32.826Z,45.20
2017-03-17T08:50:32.925Z,45.20
2017-03-17T08:51:37.636Z,45.10
2017-03-17T08:52:28.429Z,45.20
2017-03-17T08:53:28.716Z,45.20
2017-03-17T08:54:29.517Z,45.10
2017-03-17T08:55:29.505Z,45.10
2017-03-17T08:56:34.440Z,45.10
2017-03-17T08:57:48.934Z,45.10
2017-03-17T08:58:26.881Z,45.10
2017-03-17T08:59:31.950Z,45.20
2017-03-17T09:00:26.492Z,45.20
2017-03-17T09:01:27.409Z,45.10
2017-03-17T09:02:28.382Z,45.10
2017-03-17T09:03:28.284Z,45.20
2017-03-17T09:04:29.034Z,45.10
2017-03-17T09:05:27.405Z,45.20
2017-03-17T09:06:37.368Z,45.10
2017-03-17T09:07:32.728Z,45.20
2017-03-17T09:08:38.184Z,45.20
2017-03-17T09:09:39.325Z,45.20
2017-03-17T09:10:29.292Z,45.30
2017-03-17T09:11:31.258Z,45.40
2017-03-17T09:12:27.451Z,45.40
2017-03-17T09:13:33.439Z,45.60
2017-03-17T09:14:32.185Z,45.60
2017-03-17T09:15:31.738Z,45.60
2017-03-17T09:16:28.851Z,45.50
2017-03-17T09:17:33.479Z,45.50
2017-03-17T09:18:33.455Z,45.80
2017-03-17T09:19:37.968Z,45.60
2017-03-17T09:20:28.071Z,45.70
2017-03-17T09:21:25.774Z,45.90
2017-03-17T09:22:26.871Z,45.70
2017-03-17T09:23:26.697Z,45.80
2017-03-17T09:24:37.490Z,45.70
2017-03-17T09:25:33.248Z,45.80
2017-03-17T09:26:28.297Z,45.70
2017-03-17T09:27:25.397Z,45.80
2017-03-17T09:28:32.778Z,45.80
2017-03-17T09:29:29.202Z,45.90
2017-03-17T09:30:26.395Z,is
2017-03-17T09:31:33.092Z,45.80
2017-03-17T09:32:26.783Z,45.80
2017-03-17T09:33:37.274Z,45.80
2017-03-17T09:34:32.920Z,45.80
2017-03-17T09:35:32.830Z,45.80
2017-03-17T09:36:26.098Z,45.70
2017-03-17T09:37:38.197Z,45.70
2017-03-17T09:38:28.503Z,45.70
2017-03-17T09:39:28.197Z,45.70
2017-03-17T09:40:28.833Z,45.70
2017-03-17T09:41:28.931Z,45.70
2017-03-17T09:42:38.964Z,45.80
2017-03-17T09:43:38.168Z,45.90
2017-03-17T09:44:32.881Z,45.80
2017-03-17T09:45:26.188Z,45.90
2017-03-17T09:46:28.404Z,45.90
2017-03-17T09:47:31.865Z,45.90
2017-03-17T09:48:29.324Z,46.00
2017-03-17T09:49:33.218Z,45.80
2017-03-17T09:50:32.873Z,45.90
2017-03-17T09:51:24.813Z,45.90
2017-03-17T09:52:37.113Z,46.00
2017-03-17T09:53:23.429Z,45.90
2017-03-17T09:54:26.750Z,46.00
2017-03-17T09:55:27.051Z,is
2017-03-17T09:56:32.732Z,46.00
2017-03-17T09:57:27.599Z,46.10
2017-03-17T09:58:29.414Z,46.10
2017-03-17T09:59:39.016Z,46.10
2017-03-17T10:00:27.253Z,46.20
2017-03-17T10:01:32.808Z,46.10
2017-03-17T10:02:31.833Z,46.10
2017-03-17T10:03:28.906Z,46.20
2017-03-17T10:04:33.165Z,46.20
2017-03-17T10:05:31.350Z,46.20
2017-03-17T10:06:35.441Z,46.20
2017-03-17T10:07:21.123Z,46.30
2017-03-17T10:08:29.512Z,46.30
2017-03-17T10:09:28.816Z,46.30
2017-03-17T10:10:25.751Z,46.40
2017-03-17T10:11:27.801Z,46.40
2017-03-17T10:12:28.961Z,46.40
2017-03-17T10:13:34.342Z,46.40
2017-03-17T10:14:33.619Z,46.40
2017-03-17T10:15:29.401Z,46.40
2017-03-17T10:16:39.075Z,46.50
2017-03-17T10:17:27.393Z,46.40
2017-03-17T10:18:33.992Z,46.40
2017-03-17T10:19:32.146Z,is
2017-03-17T10:20:32.809Z,46.60
2017-03-17T10:21:28.831Z,46.50
2017-03-17T10:22:33.913Z,46.50
2017-03-17T10:23:29.606Z,46.50
2017-03-17T10:24:28.261Z,46.40
2017-03-17T10:25:28.367Z,46.40
2017-03-17T10:26:37.668Z,46.60
2017-03-17T10:27:28.705Z,46.50
2017-03-17T10:28:27.200Z,46.60
2017-03-17T10:29:28.271Z,46.60
2017-03-17T10:30:21.556Z,46.70
2017-03-17T10:31:28.686Z,46.70
2017-03-17T10:32:33.588Z,46.60
2017-03-17T10:33:29.632Z,46.60
2017-03-17T10:34:29.158Z,46.60
2017-03-17T10:35:28.716Z,46.60
2017-03-17T10:36:38.599Z,46.60
2017-03-17T10:37:28.856Z,46.70
2017-03-17T10:38:38.593Z,46.70
2017-03-17T10:39:26.262Z,46.70
2017-03-17T10:40:35.742Z,46.70
2017-03-17T10:41:35.600Z,46.70
2017-03-17T10:42:27.430Z,is
2017-03-17T10:43:27.501Z,46.70
2017-03-17T10:44:29.033Z,46.70
2017-03-17T10:45:32.313Z,46.90
2017-03-17T10:46:35.673Z,47.20
2017-03-17T10:47:37.184Z,46.90
2017-03-17T10:48:28.196Z,is
2017-03-17T10:49:26.978Z,46.70
2017-03-17T10:50:31.919Z,is
2017-03-17T10:51:28.187Z,46.80
2017-03-17T10:52:21.502Z,46.80
2017-03-17T10:53:27.628Z,46.70
2017-03-17T10:54:33.141Z,46.70
2017-03-17T10:55:29.189Z,47.10
2017-03-17T10:56:28.665Z,46.80
2017-03-17T10:57:22.928Z,46.80
2017-03-17T10:58:32.252Z,46.90
2017-03-17T10:59:37.748Z,47.00
2017-03-17T11:00:33.745Z,47.00
2017-03-17T11:01:27.241Z,is
2017-03-17T11:02:32.615Z,47.10
2017-03-17T11:03:29.112Z,47.10
2017-03-17T11:04:26.764Z,47.10
2017-03-17T11:05:36.850Z,47.10
2017-03-17T11:06:29.523Z,47.20
2017-03-17T11:07:33.798Z,47.10
2017-03-17T11:08:29.252Z,47.10
2017-03-17T11:09:28.279Z,47.10
2017-03-17T11:10:28.511Z,47.10
2017-03-17T11:11:33.700Z,47.20
2017-03-17T11:12:27.662Z,47.20
2017-03-17T11:13:31.955Z,47.20
2017-03-17T11:14:34.547Z,47.20
2017-03-17T11:15:26.692Z,47.30
2017-03-17T11:16:27.851Z,47.40
2017-03-17T11:17:37.520Z,47.40
2017-03-17T11:18:29.178Z,47.40
2017-03-17T11:19:35.844Z,47.60
2017-03-17T11:20:28.691Z,47.60
2017-03-17T11:21:31.375Z,47.60
2017-03-17T11:22:28.572Z,47.50
2017-03-17T11:23:32.594Z,47.50
2017-03-17T11:24:27.696Z,47.60
2017-03-17T11:25:30.594Z,47.50
2017-03-17T11:26:27.972Z,47.50
2017-03-17T11:27:33.671Z,47.70
2017-03-17T11:28:27.294Z,47.60
2017-03-17T11:29:29.736Z,47.70
2017-03-17T11:30:28.327Z,47.60
2017-03-17T11:31:32.998Z,47.60
2017-03-17T11:32:40.336Z,47.70
2017-03-17T11:33:38.807Z,47.70
2017-03-17T11:34:28.838Z,47.70
2017-03-17T11:35:31.577Z,47.70
2017-03-17T11:36:26.904Z,47.60
2017-03-17T11:37:31.275Z,47.60
2017-03-17T11:38:31.533Z,47.70
2017-03-17T11:39:42.933Z,47.70
2017-03-17T11:40:27.638Z,47.70
2017-03-17T11:41:33.373Z,47.70
2017-03-17T11:42:25.464Z,47.60
2017-03-17T11:43:33.956Z,47.40
2017-03-17T11:44:35.809Z,47.70
2017-03-17T11:45:34.015Z,47.60
2017-03-17T11:46:35.137Z,47.60
2017-03-17T11:47:27.638Z,47.60
2017-03-17T11:48:30.550Z,47.60
2017-03-17T11:49:31.003Z,47.60
2017-03-17T11:50:26.986Z,47.60
2017-03-17T11:51:33.335Z,47.60
2017-03-17T11:52:29.230Z,47.60
2017-03-17T11:53:28.289Z,47.60
2017-03-17T11:54:30.214Z,47.60
2017-03-17T11:55:28.405Z,47.60
2017-03-17T11:56:28.658Z,47.50
2017-03-17T11:57:28.147Z,47.50
2017-03-17T11:58:33.166Z,47.50
2017-03-17T11:59:27.412Z,47.50
2017-03-17T12:00:34.728Z,is
2017-03-17T12:01:28.767Z,47.50
2017-03-17T12:02:28.711Z,47.50
2017-03-17T12:03:33.459Z,47.50
2017-03-17T12:04:28.143Z,47.50
2017-03-17T12:05:28.500Z,47.40
2017-03-17T12:06:28.661Z,46.70
2017-03-17T12:07:29.557Z,47.40
2017-03-17T12:08:45.201Z,47.50
2017-03-17T12:09:29.057Z,47.70
2017-03-17T12:10:31.188Z,47.70
2017-03-17T12:11:27.648Z,is
2017-03-17T12:12:27.390Z,47.60
2017-03-17T12:13:28.661Z,47.60
2017-03-17T12:14:38.036Z,47.50
2017-03-17T12:15:34.138Z,47.00
2017-03-17T12:16:33.496Z,47.70
2017-03-17T12:17:28.159Z,47.60
2017-03-17T12:18:25.375Z,47.60
2017-03-17T12:19:28.467Z,47.50
2017-03-17T12:20:39.053Z,47.70
2017-03-17T12:21:39.849Z,47.60
2017-03-17T12:22:45.141Z,47.70
2017-03-17T12:23:29.642Z,47.90
2017-03-17T12:24:28.390Z,47.70
2017-03-17T12:25:31.090Z,47.50
2017-03-17T12:26:29.590Z,47.40
2017-03-17T12:27:31.892Z,47.50
2017-03-17T12:28:32.580Z,47.60
2017-03-17T12:29:31.407Z,is
2017-03-17T12:30:37.906Z,47.50
2017-03-17T12:31:32.353Z,46.60
2017-03-17T12:32:20.715Z,47.30
2017-03-17T12:33:29.177Z,47.20
2017-03-17T12:34:26.950Z,47.20
2017-03-17T12:35:32.716Z,47.20
2017-03-17T12:36:37.911Z,47.20
2017-03-17T12:37:32.999Z,47.20
2017-03-17T12:38:38.368Z,47.20
2017-03-17T12:39:37.477Z,47.30
2017-03-17T12:40:33.603Z,47.30
2017-03-17T12:41:16.239Z,47.30
2017-03-17T12:42:28.529Z,47.20
2017-03-17T12:43:31.906Z,47.10
2017-03-17T12:44:27.055Z,47.10
2017-03-17T12:45:26.900Z,47.20
2017-03-17T12:46:32.786Z,47.30
2017-03-17T12:47:28.510Z,47.20
2017-03-17T12:48:38.068Z,47.10
2017-03-17T12:49:36.027Z,47.10
2017-03-17T12:50:36.487Z,47.20
2017-03-17T12:51:28.693Z,47.00
2017-03-17T12:52:26.860Z,47.10
2017-03-17T12:53:34.520Z,47.20
2017-03-17T12:54:26.917Z,47.10
2017-03-17T12:55:32.711Z,47.20